sensor_id;sensor_type;location;lat;lon;timestamp;P1;durP1;ratioP1;P2;durP2;ratioP2
29812;SDS011;16707;48.106;11.548;2023-04-24T00:02:11;1.58;;;1.38;;
29812;SDS011;16707;48.106;11.548;2023-04-24T00:04:38;1.42;;;0.95;;
29812;SDS011;16707;48.106;11.548;2023-04-24T00:07:06;1.33;;;1.00;;
29812;SDS011;16707;48.106;11.548;2023-04-24T00:09:33;1.33;;;0.95;;
29812;SDS011;16707;48.106;11.548;2023-04-24T00:12:01;1.88;;;1.25;;
29812;SDS011;16707;48.106;11.548;2023-04-24T00:14:29;2.35;;;0.98;;
29812;SDS011;16707;48.106;11.548;2023-04-24T00:16:56;1.67;;;1.10;;
29812;SDS011;16707;48.106;11.548;2023-04-24T00:19:24;1.05;;;0.93;;
29812;SDS011;16707;48.106;11.548;2023-04-24T00:21:54;0.98;;;0.80;;
29812;SDS011;16707;48.106;11.548;2023-04-24T00:24:22;0.63;;;0.63;;
29812;SDS011;16707;48.106;11.548;2023-04-24T00:26:51;1.23;;;0.90;;
29812;SDS011;16707;48.106;11.548;2023-04-24T00:29:28;1.17;;;0.98;;
29812;SDS011;16707;48.106;11.548;2023-04-24T00:32:05;1.55;;;1.00;;
29812;SDS011;16707;48.106;11.548;2023-04-24T00:34:35;1.92;;;1.00;;
29812;SDS011;16707;48.106;11.548;2023-04-24T00:37:07;1.40;;;0.93;;
29812;SDS011;16707;48.106;11.548;2023-04-24T00:39:34;2.60;;;1.27;;
29812;SDS011;16707;48.106;11.548;2023-04-24T00:42:01;2.10;;;1.15;;
29812;SDS011;16707;48.106;11.548;2023-04-24T00:44:32;2.53;;;1.15;;
29812;SDS011;16707;48.106;11.548;2023-04-24T00:47:00;2.30;;;1.10;;
29812;SDS011;16707;48.106;11.548;2023-04-24T00:49:28;0.75;;;0.73;;
29812;SDS011;16707;48.106;11.548;2023-04-24T00:51:55;1.02;;;0.77;;
29812;SDS011;16707;48.106;11.548;2023-04-24T00:54:25;0.90;;;0.60;;
29812;SDS011;16707;48.106;11.548;2023-04-24T00:56:54;0.70;;;0.50;;
29812;SDS011;16707;48.106;11.548;2023-04-24T00:59:22;1.17;;;0.73;;
29812;SDS011;16707;48.106;11.548;2023-04-24T01:01:52;0.68;;;0.60;;
29812;SDS011;16707;48.106;11.548;2023-04-24T01:04:28;0.88;;;0.60;;
29812;SDS011;16707;48.106;11.548;2023-04-24T01:06:55;1.70;;;0.73;;
29812;SDS011;16707;48.106;11.548;2023-04-24T01:09:27;1.15;;;0.70;;
29812;SDS011;16707;48.106;11.548;2023-04-24T01:12:04;1.05;;;0.50;;
29812;SDS011;16707;48.106;11.548;2023-04-24T01:14:31;1.10;;;0.55;;
29812;SDS011;16707;48.106;11.548;2023-04-24T01:17:00;1.75;;;0.85;;
29812;SDS011;16707;48.106;11.548;2023-04-24T01:19:28;0.40;;;0.40;;
29812;SDS011;16707;48.106;11.548;2023-04-24T01:21:56;2.00;;;0.60;;
29812;SDS011;16707;48.106;11.548;2023-04-24T01:24:26;0.57;;;0.47;;
29812;SDS011;16707;48.106;11.548;2023-04-24T01:26:54;1.10;;;0.50;;
29812;SDS011;16707;48.106;11.548;2023-04-24T01:29:21;1.63;;;0.60;;
29812;SDS011;16707;48.106;11.548;2023-04-24T01:31:50;0.70;;;0.55;;
29812;SDS011;16707;48.106;11.548;2023-04-24T01:34:18;0.88;;;0.50;;
29812;SDS011;16707;48.106;11.548;2023-04-24T01:36:45;0.77;;;0.55;;
29812;SDS011;16707;48.106;11.548;2023-04-24T01:39:12;0.60;;;0.50;;
29812;SDS011;16707;48.106;11.548;2023-04-24T01:41:50;0.80;;;0.50;;
29812;SDS011;16707;48.106;11.548;2023-04-24T01:44:18;0.50;;;0.50;;
29812;SDS011;16707;48.106;11.548;2023-04-24T01:46:46;0.70;;;0.50;;
29812;SDS011;16707;48.106;11.548;2023-04-24T01:49:16;1.10;;;0.70;;
29812;SDS011;16707;48.106;11.548;2023-04-24T01:51:46;1.17;;;0.70;;
29812;SDS011;16707;48.106;11.548;2023-04-24T01:54:16;0.50;;;0.47;;
29812;SDS011;16707;48.106;11.548;2023-04-24T01:56:44;0.40;;;0.40;;
29812;SDS011;16707;48.106;11.548;2023-04-24T01:59:14;0.45;;;0.45;;
29812;SDS011;16707;48.106;11.548;2023-04-24T02:01:43;1.00;;;0.50;;
29812;SDS011;16707;48.106;11.548;2023-04-24T02:04:10;0.47;;;0.47;;
29812;SDS011;16707;48.106;11.548;2023-04-24T02:06:39;0.88;;;0.40;;
29812;SDS011;16707;48.106;11.548;2023-04-24T02:09:24;2.08;;;0.43;;
29812;SDS011;16707;48.106;11.548;2023-04-24T02:11:53;0.80;;;0.40;;
29812;SDS011;16707;48.106;11.548;2023-04-24T02:14:25;0.73;;;0.50;;
29812;SDS011;16707;48.106;11.548;2023-04-24T02:16:55;0.45;;;0.43;;
29812;SDS011;16707;48.106;11.548;2023-04-24T02:19:28;1.02;;;0.55;;
29812;SDS011;16707;48.106;11.548;2023-04-24T02:22:08;0.30;;;0.30;;
29812;SDS011;16707;48.106;11.548;2023-04-24T02:24:35;0.50;;;0.40;;
29812;SDS011;16707;48.106;11.548;2023-04-24T02:27:14;0.95;;;0.50;;
29812;SDS011;16707;48.106;11.548;2023-04-24T02:29:42;0.30;;;0.30;;
29812;SDS011;16707;48.106;11.548;2023-04-24T02:32:12;0.60;;;0.50;;
29812;SDS011;16707;48.106;11.548;2023-04-24T02:34:40;0.60;;;0.60;;
29812;SDS011;16707;48.106;11.548;2023-04-24T02:37:13;0.65;;;0.50;;
29812;SDS011;16707;48.106;11.548;2023-04-24T02:39:40;0.82;;;0.80;;
29812;SDS011;16707;48.106;11.548;2023-04-24T02:42:19;0.57;;;0.47;;
29812;SDS011;16707;48.106;11.548;2023-04-24T02:44:47;1.00;;;0.30;;
29812;SDS011;16707;48.106;11.548;2023-04-24T02:47:16;0.70;;;0.40;;
29812;SDS011;16707;48.106;11.548;2023-04-24T02:49:47;0.50;;;0.50;;
29812;SDS011;16707;48.106;11.548;2023-04-24T02:52:14;0.85;;;0.50;;
29812;SDS011;16707;48.106;11.548;2023-04-24T02:54:42;0.57;;;0.55;;
29812;SDS011;16707;48.106;11.548;2023-04-24T02:57:09;1.20;;;0.50;;
29812;SDS011;16707;48.106;11.548;2023-04-24T02:59:39;0.68;;;0.40;;
29812;SDS011;16707;48.106;11.548;2023-04-24T03:02:08;0.43;;;0.43;;
29812;SDS011;16707;48.106;11.548;2023-04-24T03:04:35;1.75;;;0.57;;
29812;SDS011;16707;48.106;11.548;2023-04-24T03:07:07;0.43;;;0.40;;
29812;SDS011;16707;48.106;11.548;2023-04-24T03:09:35;1.63;;;0.50;;
29812;SDS011;16707;48.106;11.548;2023-04-24T03:12:03;1.20;;;0.40;;
29812;SDS011;16707;48.106;11.548;2023-04-24T03:14:30;0.90;;;0.60;;
29812;SDS011;16707;48.106;11.548;2023-04-24T03:16:57;1.42;;;0.77;;
29812;SDS011;16707;48.106;11.548;2023-04-24T03:19:26;0.98;;;0.50;;
29812;SDS011;16707;48.106;11.548;2023-04-24T03:22:02;0.60;;;0.60;;
29812;SDS011;16707;48.106;11.548;2023-04-24T03:24:31;1.35;;;0.40;;
29812;SDS011;16707;48.106;11.548;2023-04-24T03:27:01;0.70;;;0.70;;
29812;SDS011;16707;48.106;11.548;2023-04-24T03:29:31;0.50;;;0.50;;
29812;SDS011;16707;48.106;11.548;2023-04-24T03:32:01;0.75;;;0.50;;
29812;SDS011;16707;48.106;11.548;2023-04-24T03:34:30;0.60;;;0.60;;
29812;SDS011;16707;48.106;11.548;2023-04-24T03:36:57;1.00;;;0.60;;
29812;SDS011;16707;48.106;11.548;2023-04-24T03:39:27;0.90;;;0.60;;
29812;SDS011;16707;48.106;11.548;2023-04-24T03:42:09;0.50;;;0.50;;
29812;SDS011;16707;48.106;11.548;2023-04-24T03:44:36;0.47;;;0.47;;
29812;SDS011;16707;48.106;11.548;2023-04-24T03:47:03;1.00;;;0.43;;
29812;SDS011;16707;48.106;11.548;2023-04-24T03:49:32;1.02;;;0.60;;
29812;SDS011;16707;48.106;11.548;2023-04-24T03:52:02;0.50;;;0.50;;
29812;SDS011;16707;48.106;11.548;2023-04-24T03:54:29;1.38;;;0.68;;
29812;SDS011;16707;48.106;11.548;2023-04-24T03:57:05;1.83;;;0.70;;
29812;SDS011;16707;48.106;11.548;2023-04-24T03:59:32;1.00;;;0.65;;
29812;SDS011;16707;48.106;11.548;2023-04-24T04:01:59;0.50;;;0.50;;
29812;SDS011;16707;48.106;11.548;2023-04-24T04:04:26;2.00;;;0.90;;
29812;SDS011;16707;48.106;11.548;2023-04-24T04:07:01;0.43;;;0.43;;
29812;SDS011;16707;48.106;11.548;2023-04-24T04:09:30;1.38;;;0.98;;
29812;SDS011;16707;48.106;11.548;2023-04-24T04:11:57;2.72;;;0.90;;
29812;SDS011;16707;48.106;11.548;2023-04-24T04:14:25;1.52;;;0.98;;
29812;SDS011;16707;48.106;11.548;2023-04-24T04:16:54;0.40;;;0.40;;
29812;SDS011;16707;48.106;11.548;2023-04-24T04:19:26;0.57;;;0.50;;
29812;SDS011;16707;48.106;11.548;2023-04-24T04:21:53;0.45;;;0.45;;
29812;SDS011;16707;48.106;11.548;2023-04-24T04:24:22;2.28;;;0.63;;
29812;SDS011;16707;48.106;11.548;2023-04-24T04:26:51;0.60;;;0.60;;
29812;SDS011;16707;48.106;11.548;2023-04-24T04:29:21;0.60;;;0.60;;
29812;SDS011;16707;48.106;11.548;2023-04-24T04:31:55;0.75;;;0.65;;
29812;SDS011;16707;48.106;11.548;2023-04-24T04:34:35;0.70;;;0.60;;
29812;SDS011;16707;48.106;11.548;2023-04-24T04:37:03;1.48;;;0.68;;
29812;SDS011;16707;48.106;11.548;2023-04-24T04:39:39;0.60;;;0.52;;
29812;SDS011;16707;48.106;11.548;2023-04-24T04:42:21;1.58;;;0.82;;
29812;SDS011;16707;48.106;11.548;2023-04-24T04:44:49;1.27;;;0.60;;
29812;SDS011;16707;48.106;11.548;2023-04-24T04:47:19;1.52;;;1.02;;
29812;SDS011;16707;48.106;11.548;2023-04-24T04:49:48;1.00;;;0.60;;
29812;SDS011;16707;48.106;11.548;2023-04-24T04:52:16;0.80;;;0.60;;
29812;SDS011;16707;48.106;11.548;2023-04-24T04:54:44;1.13;;;0.50;;
29812;SDS011;16707;48.106;11.548;2023-04-24T04:57:11;1.63;;;1.05;;
29812;SDS011;16707;48.106;11.548;2023-04-24T04:59:44;1.00;;;0.80;;
29812;SDS011;16707;48.106;11.548;2023-04-24T05:02:14;1.23;;;1.13;;
29812;SDS011;16707;48.106;11.548;2023-04-24T05:04:48;1.90;;;1.52;;
29812;SDS011;16707;48.106;11.548;2023-04-24T05:07:20;0.98;;;0.60;;
29812;SDS011;16707;48.106;11.548;2023-04-24T05:09:57;1.95;;;0.60;;
29812;SDS011;16707;48.106;11.548;2023-04-24T05:12:29;0.52;;;0.50;;
29812;SDS011;16707;48.106;11.548;2023-04-24T05:14:59;0.50;;;0.40;;
29812;SDS011;16707;48.106;11.548;2023-04-24T05:17:29;0.47;;;0.47;;
29812;SDS011;16707;48.106;11.548;2023-04-24T05:20:05;0.60;;;0.40;;
29812;SDS011;16707;48.106;11.548;2023-04-24T05:22:34;0.38;;;0.38;;
29812;SDS011;16707;48.106;11.548;2023-04-24T05:25:09;1.48;;;0.70;;
29812;SDS011;16707;48.106;11.548;2023-04-24T05:27:41;0.50;;;0.30;;
29812;SDS011;16707;48.106;11.548;2023-04-24T05:30:14;0.40;;;0.38;;
29812;SDS011;16707;48.106;11.548;2023-04-24T05:32:44;0.43;;;0.40;;
29812;SDS011;16707;48.106;11.548;2023-04-24T05:35:19;3.03;;;0.60;;
29812;SDS011;16707;48.106;11.548;2023-04-24T05:37:51;0.50;;;0.50;;
29812;SDS011;16707;48.106;11.548;2023-04-24T05:40:29;0.85;;;0.70;;
29812;SDS011;16707;48.106;11.548;2023-04-24T05:42:58;1.40;;;0.70;;
29812;SDS011;16707;48.106;11.548;2023-04-24T05:45:28;0.77;;;0.50;;
29812;SDS011;16707;48.106;11.548;2023-04-24T05:47:55;0.98;;;0.52;;
29812;SDS011;16707;48.106;11.548;2023-04-24T05:50:25;3.10;;;0.93;;
29812;SDS011;16707;48.106;11.548;2023-04-24T05:52:58;0.32;;;0.32;;
29812;SDS011;16707;48.106;11.548;2023-04-24T05:55:33;0.55;;;0.45;;
29812;SDS011;16707;48.106;11.548;2023-04-24T05:58:00;0.50;;;0.50;;
29812;SDS011;16707;48.106;11.548;2023-04-24T06:00:28;0.93;;;0.52;;
29812;SDS011;16707;48.106;11.548;2023-04-24T06:03:04;0.93;;;0.60;;
29812;SDS011;16707;48.106;11.548;2023-04-24T06:05:39;0.93;;;0.60;;
29812;SDS011;16707;48.106;11.548;2023-04-24T06:08:09;0.38;;;0.30;;
29812;SDS011;16707;48.106;11.548;2023-04-24T06:10:45;0.77;;;0.40;;
29812;SDS011;16707;48.106;11.548;2023-04-24T06:13:15;1.42;;;0.43;;
29812;SDS011;16707;48.106;11.548;2023-04-24T06:15:51;0.43;;;0.30;;
29812;SDS011;16707;48.106;11.548;2023-04-24T06:18:21;0.45;;;0.35;;
29812;SDS011;16707;48.106;11.548;2023-04-24T06:20:48;0.70;;;0.35;;
29812;SDS011;16707;48.106;11.548;2023-04-24T06:23:16;0.40;;;0.40;;
29812;SDS011;16707;48.106;11.548;2023-04-24T06:25:45;0.30;;;0.30;;
29812;SDS011;16707;48.106;11.548;2023-04-24T06:28:12;1.75;;;0.47;;
29812;SDS011;16707;48.106;11.548;2023-04-24T06:30:47;1.05;;;0.68;;
29812;SDS011;16707;48.106;11.548;2023-04-24T06:33:19;0.32;;;0.30;;
29812;SDS011;16707;48.106;11.548;2023-04-24T06:35:47;0.45;;;0.30;;
29812;SDS011;16707;48.106;11.548;2023-04-24T06:38:20;0.95;;;0.40;;
29812;SDS011;16707;48.106;11.548;2023-04-24T06:40:49;1.27;;;0.50;;
29812;SDS011;16707;48.106;11.548;2023-04-24T06:43:23;0.75;;;0.50;;
29812;SDS011;16707;48.106;11.548;2023-04-24T06:45:51;0.38;;;0.30;;
29812;SDS011;16707;48.106;11.548;2023-04-24T06:48:18;0.30;;;0.30;;
29812;SDS011;16707;48.106;11.548;2023-04-24T06:50:47;0.50;;;0.50;;
29812;SDS011;16707;48.106;11.548;2023-04-24T06:53:15;0.68;;;0.43;;
29812;SDS011;16707;48.106;11.548;2023-04-24T06:55:42;0.77;;;0.43;;
29812;SDS011;16707;48.106;11.548;2023-04-24T06:58:12;0.73;;;0.52;;
29812;SDS011;16707;48.106;11.548;2023-04-24T07:00:42;0.65;;;0.40;;
29812;SDS011;16707;48.106;11.548;2023-04-24T07:03:10;0.50;;;0.50;;
29812;SDS011;16707;48.106;11.548;2023-04-24T07:05:37;2.13;;;0.65;;
29812;SDS011;16707;48.106;11.548;2023-04-24T07:08:12;0.50;;;0.50;;
29812;SDS011;16707;48.106;11.548;2023-04-24T07:10:42;0.40;;;0.40;;
29812;SDS011;16707;48.106;11.548;2023-04-24T07:13:11;1.08;;;0.60;;
29812;SDS011;16707;48.106;11.548;2023-04-24T07:15:41;0.88;;;0.40;;
29812;SDS011;16707;48.106;11.548;2023-04-24T07:18:11;2.08;;;0.60;;
29812;SDS011;16707;48.106;11.548;2023-04-24T07:20:39;1.10;;;0.68;;
29812;SDS011;16707;48.106;11.548;2023-04-24T07:23:15;1.77;;;0.50;;
29812;SDS011;16707;48.106;11.548;2023-04-24T07:25:47;2.47;;;0.60;;
29812;SDS011;16707;48.106;11.548;2023-04-24T07:28:18;0.77;;;0.40;;
29812;SDS011;16707;48.106;11.548;2023-04-24T07:33:19;0.63;;;0.40;;
29812;SDS011;16707;48.106;11.548;2023-04-24T07:35:48;0.55;;;0.38;;
29812;SDS011;16707;48.106;11.548;2023-04-24T07:38:31;1.73;;;0.60;;
29812;SDS011;16707;48.106;11.548;2023-04-24T07:40:58;0.38;;;0.38;;
29812;SDS011;16707;48.106;11.548;2023-04-24T07:43:27;0.50;;;0.50;;
29812;SDS011;16707;48.106;11.548;2023-04-24T07:45:54;2.05;;;0.90;;
29812;SDS011;16707;48.106;11.548;2023-04-24T07:48:21;0.70;;;0.50;;
29812;SDS011;16707;48.106;11.548;2023-04-24T07:50:54;0.40;;;0.40;;
29812;SDS011;16707;48.106;11.548;2023-04-24T07:53:22;0.98;;;0.40;;
29812;SDS011;16707;48.106;11.548;2023-04-24T07:55:53;1.23;;;0.43;;
29812;SDS011;16707;48.106;11.548;2023-04-24T07:58:20;0.40;;;0.40;;
29812;SDS011;16707;48.106;11.548;2023-04-24T08:00:52;0.68;;;0.55;;
29812;SDS011;16707;48.106;11.548;2023-04-24T08:03:20;0.88;;;0.43;;
29812;SDS011;16707;48.106;11.548;2023-04-24T08:05:47;0.50;;;0.47;;
29812;SDS011;16707;48.106;11.548;2023-04-24T08:08:17;0.57;;;0.30;;
29812;SDS011;16707;48.106;11.548;2023-04-24T08:10:46;0.47;;;0.47;;
29812;SDS011;16707;48.106;11.548;2023-04-24T08:13:13;1.10;;;0.40;;
29812;SDS011;16707;48.106;11.548;2023-04-24T08:15:43;1.60;;;0.50;;
29812;SDS011;16707;48.106;11.548;2023-04-24T08:18:17;1.17;;;0.40;;
29812;SDS011;16707;48.106;11.548;2023-04-24T08:20:46;1.05;;;0.40;;
29812;SDS011;16707;48.106;11.548;2023-04-24T08:23:13;1.48;;;0.40;;
29812;SDS011;16707;48.106;11.548;2023-04-24T08:25:40;0.30;;;0.30;;
29812;SDS011;16707;48.106;11.548;2023-04-24T08:28:08;1.75;;;0.40;;
29812;SDS011;16707;48.106;11.548;2023-04-24T08:30:35;0.40;;;0.40;;
29812;SDS011;16707;48.106;11.548;2023-04-24T08:33:03;1.55;;;0.50;;
29812;SDS011;16707;48.106;11.548;2023-04-24T08:35:31;1.88;;;0.50;;
29812;SDS011;16707;48.106;11.548;2023-04-24T08:37:59;0.52;;;0.38;;
29812;SDS011;16707;48.106;11.548;2023-04-24T08:40:27;0.85;;;0.65;;
29812;SDS011;16707;48.106;11.548;2023-04-24T08:43:00;0.55;;;0.52;;
29812;SDS011;16707;48.106;11.548;2023-04-24T08:45:27;1.25;;;0.70;;
29812;SDS011;16707;48.106;11.548;2023-04-24T08:47:55;0.55;;;0.55;;
29812;SDS011;16707;48.106;11.548;2023-04-24T08:50:24;1.00;;;0.70;;
29812;SDS011;16707;48.106;11.548;2023-04-24T08:52:53;11.52;;;3.22;;
29812;SDS011;16707;48.106;11.548;2023-04-24T08:55:24;1.17;;;0.90;;
29812;SDS011;16707;48.106;11.548;2023-04-24T08:57:57;1.23;;;1.00;;
29812;SDS011;16707;48.106;11.548;2023-04-24T09:00:27;1.30;;;1.00;;
29812;SDS011;16707;48.106;11.548;2023-04-24T09:02:57;1.85;;;0.80;;
29812;SDS011;16707;48.106;11.548;2023-04-24T09:05:29;0.73;;;0.68;;
29812;SDS011;16707;48.106;11.548;2023-04-24T09:07:58;2.83;;;1.02;;
29812;SDS011;16707;48.106;11.548;2023-04-24T09:10:28;2.03;;;0.80;;
29812;SDS011;16707;48.106;11.548;2023-04-24T09:13:00;1.10;;;0.88;;
29812;SDS011;16707;48.106;11.548;2023-04-24T09:15:28;1.02;;;0.77;;
29812;SDS011;16707;48.106;11.548;2023-04-24T09:17:56;1.45;;;0.93;;
29812;SDS011;16707;48.106;11.548;2023-04-24T09:20:23;0.95;;;0.85;;
29812;SDS011;16707;48.106;11.548;2023-04-24T09:22:53;0.80;;;0.80;;
29812;SDS011;16707;48.106;11.548;2023-04-24T09:25:25;1.15;;;0.90;;
29812;SDS011;16707;48.106;11.548;2023-04-24T09:28:00;1.20;;;0.80;;
29812;SDS011;16707;48.106;11.548;2023-04-24T09:30:31;2.20;;;0.90;;
29812;SDS011;16707;48.106;11.548;2023-04-24T09:33:09;1.20;;;0.93;;
29812;SDS011;16707;48.106;11.548;2023-04-24T09:35:37;0.85;;;0.80;;
29812;SDS011;16707;48.106;11.548;2023-04-24T09:38:07;0.88;;;0.77;;
29812;SDS011;16707;48.106;11.548;2023-04-24T09:40:37;1.70;;;1.05;;
29812;SDS011;16707;48.106;11.548;2023-04-24T09:43:09;1.30;;;0.80;;
29812;SDS011;16707;48.106;11.548;2023-04-24T09:45:43;1.40;;;0.80;;
29812;SDS011;16707;48.106;11.548;2023-04-24T09:48:10;1.00;;;0.80;;
29812;SDS011;16707;48.106;11.548;2023-04-24T09:50:37;1.00;;;0.80;;
29812;SDS011;16707;48.106;11.548;2023-04-24T09:53:05;1.55;;;0.80;;
29812;SDS011;16707;48.106;11.548;2023-04-24T09:55:35;1.27;;;0.93;;
29812;SDS011;16707;48.106;11.548;2023-04-24T09:58:13;1.00;;;0.90;;
29812;SDS011;16707;48.106;11.548;2023-04-24T10:00:45;1.42;;;0.90;;
29812;SDS011;16707;48.106;11.548;2023-04-24T10:03:12;1.38;;;0.80;;
29812;SDS011;16707;48.106;11.548;2023-04-24T10:05:46;1.20;;;1.10;;
29812;SDS011;16707;48.106;11.548;2023-04-24T10:08:14;2.72;;;1.00;;
29812;SDS011;16707;48.106;11.548;2023-04-24T10:10:43;1.00;;;0.80;;
29812;SDS011;16707;48.106;11.548;2023-04-24T10:13:11;0.90;;;0.80;;
29812;SDS011;16707;48.106;11.548;2023-04-24T10:15:40;1.55;;;1.02;;
29812;SDS011;16707;48.106;11.548;2023-04-24T10:18:21;1.55;;;0.90;;
29812;SDS011;16707;48.106;11.548;2023-04-24T10:20:57;0.75;;;0.73;;
29812;SDS011;16707;48.106;11.548;2023-04-24T10:23:33;3.08;;;1.10;;
29812;SDS011;16707;48.106;11.548;2023-04-24T10:26:01;1.70;;;1.10;;
29812;SDS011;16707;48.106;11.548;2023-04-24T10:28:37;0.70;;;0.70;;
29812;SDS011;16707;48.106;11.548;2023-04-24T10:31:05;2.00;;;1.10;;
29812;SDS011;16707;48.106;11.548;2023-04-24T10:33:33;1.20;;;1.00;;
29812;SDS011;16707;48.106;11.548;2023-04-24T10:36:09;2.85;;;1.08;;
29812;SDS011;16707;48.106;11.548;2023-04-24T10:38:39;1.48;;;1.10;;
29812;SDS011;16707;48.106;11.548;2023-04-24T10:41:14;2.85;;;1.13;;
29812;SDS011;16707;48.106;11.548;2023-04-24T10:43:48;0.85;;;0.80;;
29812;SDS011;16707;48.106;11.548;2023-04-24T10:46:16;2.25;;;1.17;;
29812;SDS011;16707;48.106;11.548;2023-04-24T10:48:52;2.90;;;1.08;;
29812;SDS011;16707;48.106;11.548;2023-04-24T10:51:24;1.52;;;1.20;;
29812;SDS011;16707;48.106;11.548;2023-04-24T10:54:24;0.80;;;0.70;;
29812;SDS011;16707;48.106;11.548;2023-04-24T11:00:15;0.68;;;0.60;;
29812;SDS011;16707;48.106;11.548;2023-04-24T11:02:52;0.70;;;0.60;;
29812;SDS011;16707;48.106;11.548;2023-04-24T11:05:48;0.90;;;0.50;;
29812;SDS011;16707;48.106;11.548;2023-04-24T11:08:23;0.50;;;0.50;;
29812;SDS011;16707;48.106;11.548;2023-04-24T11:10:58;1.23;;;0.70;;
29812;SDS011;16707;48.106;11.548;2023-04-24T11:16:32;1.70;;;0.55;;
29812;SDS011;16707;48.106;11.548;2023-04-24T11:19:18;1.15;;;0.60;;
29812;SDS011;16707;48.106;11.548;2023-04-24T11:21:54;0.60;;;0.60;;
29812;SDS011;16707;48.106;11.548;2023-04-24T11:24:29;0.50;;;0.50;;
29812;SDS011;16707;48.106;11.548;2023-04-24T11:27:05;1.33;;;0.70;;
29812;SDS011;16707;48.106;11.548;2023-04-24T11:29:43;1.70;;;0.90;;
29812;SDS011;16707;48.106;11.548;2023-04-24T11:32:22;1.95;;;1.10;;
29812;SDS011;16707;48.106;11.548;2023-04-24T11:34:54;1.20;;;0.80;;
29812;SDS011;16707;48.106;11.548;2023-04-24T11:37:24;2.22;;;0.88;;
29812;SDS011;16707;48.106;11.548;2023-04-24T11:40:03;2.92;;;0.90;;
29812;SDS011;16707;48.106;11.548;2023-04-24T11:42:39;1.30;;;0.90;;
29812;SDS011;16707;48.106;11.548;2023-04-24T11:45:15;1.00;;;0.93;;
29812;SDS011;16707;48.106;11.548;2023-04-24T11:47:44;1.52;;;1.10;;
29812;SDS011;16707;48.106;11.548;2023-04-24T11:50:12;2.05;;;0.95;;
29812;SDS011;16707;48.106;11.548;2023-04-24T11:52:45;1.30;;;0.80;;
29812;SDS011;16707;48.106;11.548;2023-04-24T11:55:22;2.80;;;1.13;;
29812;SDS011;16707;48.106;11.548;2023-04-24T11:57:55;1.17;;;1.08;;
29812;SDS011;16707;48.106;11.548;2023-04-24T12:00:31;1.10;;;0.73;;
29812;SDS011;16707;48.106;11.548;2023-04-24T12:03:04;1.58;;;0.80;;
29812;SDS011;16707;48.106;11.548;2023-04-24T12:05:41;0.85;;;0.80;;
29812;SDS011;16707;48.106;11.548;2023-04-24T12:08:11;1.55;;;1.23;;
29812;SDS011;16707;48.106;11.548;2023-04-24T12:10:38;1.67;;;1.00;;
29812;SDS011;16707;48.106;11.548;2023-04-24T12:13:08;1.20;;;0.77;;
29812;SDS011;16707;48.106;11.548;2023-04-24T12:15:39;1.27;;;1.05;;
29812;SDS011;16707;48.106;11.548;2023-04-24T12:18:07;3.00;;;1.10;;
29812;SDS011;16707;48.106;11.548;2023-04-24T12:20:44;2.08;;;1.30;;
29812;SDS011;16707;48.106;11.548;2023-04-24T12:23:12;1.88;;;0.95;;
29812;SDS011;16707;48.106;11.548;2023-04-24T12:25:39;1.70;;;1.05;;
29812;SDS011;16707;48.106;11.548;2023-04-24T12:28:10;1.85;;;1.17;;
29812;SDS011;16707;48.106;11.548;2023-04-24T12:30:41;1.23;;;0.90;;
29812;SDS011;16707;48.106;11.548;2023-04-24T12:33:16;1.58;;;0.98;;
29812;SDS011;16707;48.106;11.548;2023-04-24T12:35:44;0.85;;;0.85;;
29812;SDS011;16707;48.106;11.548;2023-04-24T12:38:15;1.45;;;1.10;;
29812;SDS011;16707;48.106;11.548;2023-04-24T12:40:43;1.65;;;0.90;;
29812;SDS011;16707;48.106;11.548;2023-04-24T12:43:13;1.40;;;0.90;;
29812;SDS011;16707;48.106;11.548;2023-04-24T12:45:43;1.77;;;1.10;;
29812;SDS011;16707;48.106;11.548;2023-04-24T12:48:14;2.13;;;1.17;;
29812;SDS011;16707;48.106;11.548;2023-04-24T12:50:45;1.92;;;1.00;;
29812;SDS011;16707;48.106;11.548;2023-04-24T12:53:12;1.45;;;0.80;;
29812;SDS011;16707;48.106;11.548;2023-04-24T12:55:42;3.00;;;1.50;;
29812;SDS011;16707;48.106;11.548;2023-04-24T12:58:11;3.80;;;1.13;;
29812;SDS011;16707;48.106;11.548;2023-04-24T13:00:40;1.45;;;1.25;;
29812;SDS011;16707;48.106;11.548;2023-04-24T13:03:12;1.48;;;1.05;;
29812;SDS011;16707;48.106;11.548;2023-04-24T13:05:41;2.22;;;1.13;;
29812;SDS011;16707;48.106;11.548;2023-04-24T13:08:09;3.92;;;1.50;;
29812;SDS011;16707;48.106;11.548;2023-04-24T13:10:38;3.42;;;1.65;;
29812;SDS011;16707;48.106;11.548;2023-04-24T13:13:05;2.40;;;1.48;;
29812;SDS011;16707;48.106;11.548;2023-04-24T13:15:35;2.17;;;1.00;;
29812;SDS011;16707;48.106;11.548;2023-04-24T13:18:02;2.88;;;1.05;;
29812;SDS011;16707;48.106;11.548;2023-04-24T13:20:33;2.22;;;1.63;;
29812;SDS011;16707;48.106;11.548;2023-04-24T13:23:01;1.90;;;1.20;;
29812;SDS011;16707;48.106;11.548;2023-04-24T13:25:30;1.60;;;1.20;;
29812;SDS011;16707;48.106;11.548;2023-04-24T13:28:00;3.15;;;1.30;;
29812;SDS011;16707;48.106;11.548;2023-04-24T13:30:27;1.73;;;1.10;;
29812;SDS011;16707;48.106;11.548;2023-04-24T13:32:54;2.13;;;1.10;;
29812;SDS011;16707;48.106;11.548;2023-04-24T13:35:22;2.42;;;1.05;;
29812;SDS011;16707;48.106;11.548;2023-04-24T13:37:51;2.03;;;1.25;;
29812;SDS011;16707;48.106;11.548;2023-04-24T13:40:18;3.90;;;1.50;;
29812;SDS011;16707;48.106;11.548;2023-04-24T13:42:46;1.65;;;1.17;;
29812;SDS011;16707;48.106;11.548;2023-04-24T13:45:16;1.40;;;1.08;;
29812;SDS011;16707;48.106;11.548;2023-04-24T13:47:43;1.98;;;1.30;;
29812;SDS011;16707;48.106;11.548;2023-04-24T13:50:10;4.53;;;1.40;;
29812;SDS011;16707;48.106;11.548;2023-04-24T13:52:37;1.67;;;1.27;;
29812;SDS011;16707;48.106;11.548;2023-04-24T13:55:06;2.67;;;1.40;;
29812;SDS011;16707;48.106;11.548;2023-04-24T13:57:34;3.85;;;1.40;;
29812;SDS011;16707;48.106;11.548;2023-04-24T14:00:04;1.45;;;1.20;;
29812;SDS011;16707;48.106;11.548;2023-04-24T14:02:40;2.03;;;1.27;;
29812;SDS011;16707;48.106;11.548;2023-04-24T14:05:13;1.90;;;1.40;;
29812;SDS011;16707;48.106;11.548;2023-04-24T14:07:41;2.72;;;1.17;;
29812;SDS011;16707;48.106;11.548;2023-04-24T14:10:16;1.63;;;1.10;;
29812;SDS011;16707;48.106;11.548;2023-04-24T14:12:43;2.40;;;1.38;;
29812;SDS011;16707;48.106;11.548;2023-04-24T14:15:10;2.80;;;1.33;;
29812;SDS011;16707;48.106;11.548;2023-04-24T14:17:38;4.20;;;1.52;;
29812;SDS011;16707;48.106;11.548;2023-04-24T14:20:06;2.05;;;1.40;;
29812;SDS011;16707;48.106;11.548;2023-04-24T14:22:35;2.15;;;1.30;;
29812;SDS011;16707;48.106;11.548;2023-04-24T14:25:02;1.80;;;1.30;;
29812;SDS011;16707;48.106;11.548;2023-04-24T14:27:36;1.38;;;1.10;;
29812;SDS011;16707;48.106;11.548;2023-04-24T14:30:03;2.38;;;1.20;;
29812;SDS011;16707;48.106;11.548;2023-04-24T14:32:31;1.38;;;1.20;;
29812;SDS011;16707;48.106;11.548;2023-04-24T14:35:01;4.32;;;1.55;;
29812;SDS011;16707;48.106;11.548;2023-04-24T14:37:28;1.98;;;1.20;;
29812;SDS011;16707;48.106;11.548;2023-04-24T14:39:55;2.20;;;1.20;;
29812;SDS011;16707;48.106;11.548;2023-04-24T14:42:23;1.38;;;1.08;;
29812;SDS011;16707;48.106;11.548;2023-04-24T14:44:51;1.40;;;1.30;;
29812;SDS011;16707;48.106;11.548;2023-04-24T14:47:19;3.25;;;1.20;;
29812;SDS011;16707;48.106;11.548;2023-04-24T14:49:49;2.50;;;1.58;;
29812;SDS011;16707;48.106;11.548;2023-04-24T14:52:19;1.25;;;1.05;;
29812;SDS011;16707;48.106;11.548;2023-04-24T14:54:49;2.65;;;1.35;;
29812;SDS011;16707;48.106;11.548;2023-04-24T14:57:16;1.42;;;1.30;;
29812;SDS011;16707;48.106;11.548;2023-04-24T14:59:43;2.17;;;1.17;;
29812;SDS011;16707;48.106;11.548;2023-04-24T15:02:12;1.30;;;1.20;;